sensor_id;sensor_type;location;lat;lon;timestamp;P1;durP1;ratioP1;P2;durP2;ratioP2
74309;SDS011;62722;51.142;17.052;2023-02-25T00:01:44;5.68;;;2.92;;
74309;SDS011;62722;51.142;17.052;2023-02-25T00:04:12;6.20;;;2.80;;
74309;SDS011;62722;51.142;17.052;2023-02-25T00:06:39;6.47;;;2.90;;
74309;SDS011;62722;51.142;17.052;2023-02-25T00:09:07;4.88;;;2.80;;
74309;SDS011;62722;51.142;17.052;2023-02-25T00:11:37;5.57;;;2.80;;
74309;SDS011;62722;51.142;17.052;2023-02-25T00:14:07;6.57;;;2.97;;
74309;SDS011;62722;51.142;17.052;2023-02-25T00:16:35;7.07;;;3.78;;
74309;SDS011;62722;51.142;17.052;2023-02-25T00:19:02;5.22;;;3.50;;
74309;SDS011;62722;51.142;17.052;2023-02-25T00:21:32;5.68;;;2.97;;
74309;SDS011;62722;51.142;17.052;2023-02-25T00:24:00;7.97;;;4.03;;
74309;SDS011;62722;51.142;17.052;2023-02-25T00:26:28;6.22;;;3.20;;
74309;SDS011;62722;51.142;17.052;2023-02-25T00:28:57;6.47;;;3.10;;
74309;SDS011;62722;51.142;17.052;2023-02-25T00:31:25;6.32;;;3.10;;
74309;SDS011;62722;51.142;17.052;2023-02-25T00:33:52;7.22;;;3.22;;
74309;SDS011;62722;51.142;17.052;2023-02-25T00:36:20;4.85;;;2.53;;
74309;SDS011;62722;51.142;17.052;2023-02-25T00:38:51;5.55;;;2.80;;
74309;SDS011;62722;51.142;17.052;2023-02-25T00:41:20;4.68;;;2.60;;
74309;SDS011;62722;51.142;17.052;2023-02-25T00:43:50;5.72;;;2.65;;
74309;SDS011;62722;51.142;17.052;2023-02-25T00:46:20;6.78;;;3.05;;
74309;SDS011;62722;51.142;17.052;2023-02-25T00:48:49;4.70;;;2.50;;
74309;SDS011;62722;51.142;17.052;2023-02-25T00:51:17;6.40;;;2.78;;
74309;SDS011;62722;51.142;17.052;2023-02-25T00:53:46;6.18;;;3.05;;
74309;SDS011;62722;51.142;17.052;2023-02-25T00:56:14;6.30;;;3.05;;
74309;SDS011;62722;51.142;17.052;2023-02-25T00:58:45;5.68;;;2.65;;
74309;SDS011;62722;51.142;17.052;2023-02-25T01:01:16;4.55;;;2.58;;
74309;SDS011;62722;51.142;17.052;2023-02-25T01:03:48;5.70;;;3.13;;
74309;SDS011;62722;51.142;17.052;2023-02-25T01:06:17;5.30;;;2.58;;
74309;SDS011;62722;51.142;17.052;2023-02-25T01:08:45;5.28;;;2.80;;
74309;SDS011;62722;51.142;17.052;2023-02-25T01:11:13;5.90;;;2.63;;
74309;SDS011;62722;51.142;17.052;2023-02-25T01:13:46;5.97;;;2.90;;
74309;SDS011;62722;51.142;17.052;2023-02-25T01:16:15;6.82;;;3.38;;
74309;SDS011;62722;51.142;17.052;2023-02-25T01:18:44;6.75;;;2.90;;
74309;SDS011;62722;51.142;17.052;2023-02-25T01:21:17;6.85;;;3.47;;
74309;SDS011;62722;51.142;17.052;2023-02-25T01:23:53;6.22;;;3.50;;
74309;SDS011;62722;51.142;17.052;2023-02-25T01:28:50;6.35;;;3.03;;
74309;SDS011;62722;51.142;17.052;2023-02-25T01:31:18;6.97;;;3.20;;
74309;SDS011;62722;51.142;17.052;2023-02-25T01:33:49;6.15;;;2.90;;
74309;SDS011;62722;51.142;17.052;2023-02-25T01:36:18;5.43;;;2.97;;
74309;SDS011;62722;51.142;17.052;2023-02-25T01:38:45;5.53;;;2.90;;
74309;SDS011;62722;51.142;17.052;2023-02-25T01:41:12;5.13;;;2.88;;
74309;SDS011;62722;51.142;17.052;2023-02-25T01:43:40;6.68;;;3.80;;
74309;SDS011;62722;51.142;17.052;2023-02-25T01:46:07;6.70;;;3.38;;
74309;SDS011;62722;51.142;17.052;2023-02-25T01:48:35;6.57;;;3.15;;
74309;SDS011;62722;51.142;17.052;2023-02-25T01:51:07;7.05;;;3.60;;
74309;SDS011;62722;51.142;17.052;2023-02-25T01:53:41;7.10;;;2.90;;
74309;SDS011;62722;51.142;17.052;2023-02-25T01:56:10;6.03;;;3.17;;
74309;SDS011;62722;51.142;17.052;2023-02-25T01:58:40;6.85;;;3.55;;
74309;SDS011;62722;51.142;17.052;2023-02-25T02:01:08;6.68;;;3.58;;
74309;SDS011;62722;51.142;17.052;2023-02-25T02:03:38;6.00;;;3.10;;
74309;SDS011;62722;51.142;17.052;2023-02-25T02:06:08;6.88;;;3.42;;
74309;SDS011;62722;51.142;17.052;2023-02-25T02:08:40;7.70;;;3.90;;
74309;SDS011;62722;51.142;17.052;2023-02-25T02:11:09;6.93;;;3.78;;
74309;SDS011;62722;51.142;17.052;2023-02-25T02:13:38;8.63;;;4.30;;
74309;SDS011;62722;51.142;17.052;2023-02-25T02:16:13;7.40;;;3.65;;
74309;SDS011;62722;51.142;17.052;2023-02-25T02:18:53;10.60;;;4.32;;
74309;SDS011;62722;51.142;17.052;2023-02-25T02:27:40;9.85;;;4.78;;
74309;SDS011;62722;51.142;17.052;2023-02-25T02:30:25;9.70;;;4.22;;
74309;SDS011;62722;51.142;17.052;2023-02-25T02:33:17;7.75;;;4.13;;
74309;SDS011;62722;51.142;17.052;2023-02-25T02:35:53;7.55;;;3.83;;
74309;SDS011;62722;51.142;17.052;2023-02-25T02:38:29;8.45;;;4.22;;
74309;SDS011;62722;51.142;17.052;2023-02-25T02:41:02;8.13;;;3.95;;
74309;SDS011;62722;51.142;17.052;2023-02-25T02:43:38;8.15;;;3.65;;
74309;SDS011;62722;51.142;17.052;2023-02-25T02:46:12;8.13;;;4.10;;
74309;SDS011;62722;51.142;17.052;2023-02-25T02:48:45;7.45;;;3.47;;
74309;SDS011;62722;51.142;17.052;2023-02-25T02:51:18;10.23;;;4.07;;
74309;SDS011;62722;51.142;17.052;2023-02-25T02:53:50;9.02;;;4.25;;
74309;SDS011;62722;51.142;17.052;2023-02-25T02:56:20;6.38;;;3.15;;
74309;SDS011;62722;51.142;17.052;2023-02-25T02:58:50;9.15;;;4.05;;
74309;SDS011;62722;51.142;17.052;2023-02-25T03:01:24;9.25;;;3.85;;
74309;SDS011;62722;51.142;17.052;2023-02-25T03:06:27;7.50;;;3.28;;
74309;SDS011;62722;51.142;17.052;2023-02-25T03:09:00;8.35;;;4.45;;
74309;SDS011;62722;51.142;17.052;2023-02-25T03:11:30;7.80;;;3.95;;
74309;SDS011;62722;51.142;17.052;2023-02-25T03:13:58;6.80;;;3.20;;
74309;SDS011;62722;51.142;17.052;2023-02-25T03:16:27;7.55;;;3.30;;
74309;SDS011;62722;51.142;17.052;2023-02-25T03:19:04;6.30;;;3.20;;
74309;SDS011;62722;51.142;17.052;2023-02-25T03:21:37;7.03;;;3.35;;
74309;SDS011;62722;51.142;17.052;2023-02-25T03:24:09;6.13;;;3.42;;
74309;SDS011;62722;51.142;17.052;2023-02-25T03:26:41;5.30;;;2.83;;
74309;SDS011;62722;51.142;17.052;2023-02-25T03:29:12;6.15;;;2.90;;
74309;SDS011;62722;51.142;17.052;2023-02-25T03:31:42;5.28;;;3.00;;
74309;SDS011;62722;51.142;17.052;2023-02-25T03:34:18;6.72;;;2.97;;
74309;SDS011;62722;51.142;17.052;2023-02-25T03:36:52;7.57;;;3.20;;
74309;SDS011;62722;51.142;17.052;2023-02-25T03:39:24;7.45;;;3.00;;
74309;SDS011;62722;51.142;17.052;2023-02-25T03:41:54;6.60;;;3.08;;
74309;SDS011;62722;51.142;17.052;2023-02-25T03:44:27;6.65;;;3.20;;
74309;SDS011;62722;51.142;17.052;2023-02-25T03:46:57;7.13;;;3.20;;
74309;SDS011;62722;51.142;17.052;2023-02-25T03:49:29;5.93;;;2.70;;
74309;SDS011;62722;51.142;17.052;2023-02-25T03:52:02;5.88;;;2.97;;
74309;SDS011;62722;51.142;17.052;2023-02-25T03:54:32;7.78;;;2.88;;
74309;SDS011;62722;51.142;17.052;2023-02-25T03:57:00;6.68;;;3.10;;
74309;SDS011;62722;51.142;17.052;2023-02-25T03:59:27;7.63;;;2.88;;
74309;SDS011;62722;51.142;17.052;2023-02-25T04:01:55;5.97;;;2.50;;
74309;SDS011;62722;51.142;17.052;2023-02-25T04:04:24;11.18;;;2.83;;
74309;SDS011;62722;51.142;17.052;2023-02-25T04:06:53;5.32;;;2.30;;
74309;SDS011;62722;51.142;17.052;2023-02-25T04:09:20;7.45;;;2.63;;
74309;SDS011;62722;51.142;17.052;2023-02-25T04:11:47;5.20;;;2.80;;
74309;SDS011;62722;51.142;17.052;2023-02-25T04:14:14;7.65;;;2.20;;
74309;SDS011;62722;51.142;17.052;2023-02-25T04:16:43;4.78;;;2.13;;
74309;SDS011;62722;51.142;17.052;2023-02-25T04:19:10;4.93;;;2.00;;
74309;SDS011;62722;51.142;17.052;2023-02-25T04:21:37;6.43;;;2.40;;
74309;SDS011;62722;51.142;17.052;2023-02-25T04:24:06;5.93;;;2.13;;
74309;SDS011;62722;51.142;17.052;2023-02-25T04:26:34;5.07;;;2.20;;
74309;SDS011;62722;51.142;17.052;2023-02-25T04:29:02;5.72;;;2.63;;
74309;SDS011;62722;51.142;17.052;2023-02-25T04:31:29;6.13;;;2.25;;
74309;SDS011;62722;51.142;17.052;2023-02-25T04:33:57;5.00;;;1.70;;
74309;SDS011;62722;51.142;17.052;2023-02-25T04:36:25;5.13;;;2.13;;
74309;SDS011;62722;51.142;17.052;2023-02-25T04:38:54;4.30;;;1.67;;
74309;SDS011;62722;51.142;17.052;2023-02-25T04:41:26;5.90;;;2.20;;
74309;SDS011;62722;51.142;17.052;2023-02-25T04:43:55;5.90;;;2.10;;
74309;SDS011;62722;51.142;17.052;2023-02-25T04:46:22;3.97;;;1.90;;
74309;SDS011;62722;51.142;17.052;2023-02-25T04:48:50;4.18;;;1.50;;
74309;SDS011;62722;51.142;17.052;2023-02-25T04:51:17;6.07;;;2.05;;
74309;SDS011;62722;51.142;17.052;2023-02-25T04:53:45;6.00;;;1.88;;
74309;SDS011;62722;51.142;17.052;2023-02-25T04:56:13;5.15;;;1.50;;
74309;SDS011;62722;51.142;17.052;2023-02-25T04:58:42;8.38;;;1.90;;
74309;SDS011;62722;51.142;17.052;2023-02-25T05:01:10;4.22;;;1.50;;
74309;SDS011;62722;51.142;17.052;2023-02-25T05:03:37;5.70;;;1.60;;
74309;SDS011;62722;51.142;17.052;2023-02-25T05:06:05;4.72;;;2.08;;
74309;SDS011;62722;51.142;17.052;2023-02-25T05:08:33;5.55;;;2.13;;
74309;SDS011;62722;51.142;17.052;2023-02-25T05:11:02;5.55;;;1.75;;
74309;SDS011;62722;51.142;17.052;2023-02-25T05:13:29;5.80;;;2.10;;
74309;SDS011;62722;51.142;17.052;2023-02-25T05:16:08;6.47;;;1.90;;
74309;SDS011;62722;51.142;17.052;2023-02-25T05:18:37;5.70;;;1.92;;
74309;SDS011;62722;51.142;17.052;2023-02-25T05:21:07;6.15;;;1.70;;
74309;SDS011;62722;51.142;17.052;2023-02-25T05:23:36;3.85;;;1.63;;
74309;SDS011;62722;51.142;17.052;2023-02-25T05:26:04;3.38;;;2.10;;
74309;SDS011;62722;51.142;17.052;2023-02-25T05:28:31;4.13;;;1.50;;
74309;SDS011;62722;51.142;17.052;2023-02-25T05:31:02;4.65;;;1.73;;
74309;SDS011;62722;51.142;17.052;2023-02-25T05:33:31;4.65;;;2.00;;
74309;SDS011;62722;51.142;17.052;2023-02-25T05:35:59;5.82;;;2.38;;
74309;SDS011;62722;51.142;17.052;2023-02-25T05:38:27;6.47;;;1.83;;
74309;SDS011;62722;51.142;17.052;2023-02-25T05:40:54;4.10;;;1.70;;
74309;SDS011;62722;51.142;17.052;2023-02-25T05:43:21;3.22;;;1.38;;
74309;SDS011;62722;51.142;17.052;2023-02-25T05:45:51;6.68;;;1.95;;
74309;SDS011;62722;51.142;17.052;2023-02-25T05:48:19;6.05;;;2.05;;
74309;SDS011;62722;51.142;17.052;2023-02-25T05:50:49;4.85;;;1.83;;
74309;SDS011;62722;51.142;17.052;2023-02-25T05:53:16;3.38;;;1.63;;
74309;SDS011;62722;51.142;17.052;2023-02-25T05:55:44;4.55;;;1.83;;
74309;SDS011;62722;51.142;17.052;2023-02-25T05:58:12;3.70;;;1.85;;
74309;SDS011;62722;51.142;17.052;2023-02-25T06:00:39;5.57;;;2.78;;
74309;SDS011;62722;51.142;17.052;2023-02-25T06:03:08;7.28;;;2.00;;
74309;SDS011;62722;51.142;17.052;2023-02-25T06:05:38;5.85;;;1.70;;
74309;SDS011;62722;51.142;17.052;2023-02-25T06:08:07;4.88;;;1.63;;
74309;SDS011;62722;51.142;17.052;2023-02-25T06:10:35;4.03;;;1.60;;
74309;SDS011;62722;51.142;17.052;2023-02-25T06:13:03;3.33;;;1.52;;
74309;SDS011;62722;51.142;17.052;2023-02-25T06:15:31;3.25;;;1.23;;
74309;SDS011;62722;51.142;17.052;2023-02-25T06:17:58;5.13;;;1.80;;
74309;SDS011;62722;51.142;17.052;2023-02-25T06:20:26;3.40;;;1.55;;
74309;SDS011;62722;51.142;17.052;2023-02-25T06:22:53;4.82;;;2.00;;
74309;SDS011;62722;51.142;17.052;2023-02-25T06:25:22;5.72;;;1.90;;
74309;SDS011;62722;51.142;17.052;2023-02-25T06:27:54;3.20;;;1.80;;
74309;SDS011;62722;51.142;17.052;2023-02-25T06:30:22;6.50;;;1.92;;
74309;SDS011;62722;51.142;17.052;2023-02-25T06:32:49;3.47;;;1.60;;
74309;SDS011;62722;51.142;17.052;2023-02-25T06:35:16;3.78;;;1.80;;
74309;SDS011;62722;51.142;17.052;2023-02-25T06:37:47;4.55;;;1.50;;
74309;SDS011;62722;51.142;17.052;2023-02-25T06:40:16;4.20;;;1.83;;
74309;SDS011;62722;51.142;17.052;2023-02-25T06:42:45;2.97;;;1.60;;
74309;SDS011;62722;51.142;17.052;2023-02-25T06:45:13;3.85;;;1.70;;
74309;SDS011;62722;51.142;17.052;2023-02-25T06:47:40;3.20;;;1.70;;
74309;SDS011;62722;51.142;17.052;2023-02-25T06:50:08;4.07;;;1.73;;
74309;SDS011;62722;51.142;17.052;2023-02-25T06:52:36;4.80;;;1.83;;
74309;SDS011;62722;51.142;17.052;2023-02-25T06:55:05;4.18;;;1.90;;
74309;SDS011;62722;51.142;17.052;2023-02-25T06:57:33;4.20;;;1.92;;
74309;SDS011;62722;51.142;17.052;2023-02-25T07:00:02;4.72;;;2.08;;
74309;SDS011;62722;51.142;17.052;2023-02-25T07:02:31;3.42;;;2.03;;
74309;SDS011;62722;51.142;17.052;2023-02-25T07:04:58;5.45;;;2.45;;
74309;SDS011;62722;51.142;17.052;2023-02-25T07:07:27;5.13;;;1.77;;
74309;SDS011;62722;51.142;17.052;2023-02-25T07:09:55;4.18;;;2.08;;
74309;SDS011;62722;51.142;17.052;2023-02-25T07:12:22;3.17;;;1.90;;
74309;SDS011;62722;51.142;17.052;2023-02-25T07:14:50;2.90;;;1.70;;
74309;SDS011;62722;51.142;17.052;2023-02-25T07:17:18;3.58;;;1.73;;
74309;SDS011;62722;51.142;17.052;2023-02-25T07:19:46;4.97;;;2.60;;
74309;SDS011;62722;51.142;17.052;2023-02-25T07:22:13;4.85;;;2.10;;
74309;SDS011;62722;51.142;17.052;2023-02-25T07:24:42;4.90;;;2.45;;
74309;SDS011;62722;51.142;17.052;2023-02-25T07:27:10;5.03;;;2.50;;
74309;SDS011;62722;51.142;17.052;2023-02-25T07:29:38;5.47;;;2.55;;
74309;SDS011;62722;51.142;17.052;2023-02-25T07:32:06;5.95;;;2.30;;
74309;SDS011;62722;51.142;17.052;2023-02-25T07:34:35;5.47;;;2.35;;
74309;SDS011;62722;51.142;17.052;2023-02-25T07:37:03;4.10;;;1.92;;
74309;SDS011;62722;51.142;17.052;2023-02-25T07:39:30;5.80;;;2.47;;
74309;SDS011;62722;51.142;17.052;2023-02-25T07:41:58;4.43;;;1.95;;
74309;SDS011;62722;51.142;17.052;2023-02-25T07:44:25;3.08;;;1.65;;
74309;SDS011;62722;51.142;17.052;2023-02-25T07:46:52;4.22;;;1.90;;
74309;SDS011;62722;51.142;17.052;2023-02-25T07:49:20;4.03;;;1.92;;
74309;SDS011;62722;51.142;17.052;2023-02-25T07:51:48;3.92;;;2.10;;
74309;SDS011;62722;51.142;17.052;2023-02-25T07:54:16;5.15;;;1.90;;
74309;SDS011;62722;51.142;17.052;2023-02-25T07:56:45;3.40;;;1.90;;
74309;SDS011;62722;51.142;17.052;2023-02-25T07:59:16;3.40;;;1.90;;
74309;SDS011;62722;51.142;17.052;2023-02-25T08:01:43;4.15;;;2.15;;
74309;SDS011;62722;51.142;17.052;2023-02-25T08:04:11;4.30;;;1.90;;
74309;SDS011;62722;51.142;17.052;2023-02-25T08:06:39;3.72;;;1.77;;
74309;SDS011;62722;51.142;17.052;2023-02-25T08:09:09;4.30;;;2.00;;
74309;SDS011;62722;51.142;17.052;2023-02-25T08:11:36;4.13;;;1.90;;
74309;SDS011;62722;51.142;17.052;2023-02-25T08:14:05;3.53;;;1.73;;
74309;SDS011;62722;51.142;17.052;2023-02-25T08:16:32;4.45;;;2.28;;
74309;SDS011;62722;51.142;17.052;2023-02-25T08:19:00;5.00;;;2.05;;
74309;SDS011;62722;51.142;17.052;2023-02-25T08:21:28;4.25;;;2.10;;
74309;SDS011;62722;51.142;17.052;2023-02-25T08:23:56;3.80;;;2.10;;
74309;SDS011;62722;51.142;17.052;2023-02-25T08:26:25;3.70;;;1.80;;
74309;SDS011;62722;51.142;17.052;2023-02-25T08:28:53;4.32;;;2.00;;
74309;SDS011;62722;51.142;17.052;2023-02-25T08:31:21;3.78;;;1.90;;
74309;SDS011;62722;51.142;17.052;2023-02-25T08:33:49;3.30;;;2.08;;
74309;SDS011;62722;51.142;17.052;2023-02-25T08:36:17;3.78;;;1.98;;
74309;SDS011;62722;51.142;17.052;2023-02-25T08:38:46;5.43;;;2.47;;
74309;SDS011;62722;51.142;17.052;2023-02-25T08:41:14;5.03;;;2.38;;
74309;SDS011;62722;51.142;17.052;2023-02-25T08:43:46;3.55;;;1.85;;
74309;SDS011;62722;51.142;17.052;2023-02-25T08:46:14;4.25;;;1.92;;
74309;SDS011;62722;51.142;17.052;2023-02-25T08:48:41;5.50;;;2.10;;
74309;SDS011;62722;51.142;17.052;2023-02-25T08:51:09;5.35;;;2.47;;
74309;SDS011;62722;51.142;17.052;2023-02-25T08:53:37;4.72;;;2.53;;
74309;SDS011;62722;51.142;17.052;2023-02-25T08:56:06;4.00;;;2.20;;
74309;SDS011;62722;51.142;17.052;2023-02-25T08:58:34;4.30;;;2.33;;
74309;SDS011;62722;51.142;17.052;2023-02-25T09:01:06;4.45;;;2.20;;
74309;SDS011;62722;51.142;17.052;2023-02-25T09:03:37;3.50;;;2.00;;
74309;SDS011;62722;51.142;17.052;2023-02-25T09:06:05;3.92;;;1.95;;
74309;SDS011;62722;51.142;17.052;2023-02-25T09:08:33;3.70;;;2.10;;
74309;SDS011;62722;51.142;17.052;2023-02-25T09:11:03;4.30;;;2.33;;
74309;SDS011;62722;51.142;17.052;2023-02-25T09:13:31;7.45;;;3.80;;
74309;SDS011;62722;51.142;17.052;2023-02-25T09:15:58;5.70;;;2.90;;
74309;SDS011;62722;51.142;17.052;2023-02-25T09:18:28;4.63;;;2.40;;
74309;SDS011;62722;51.142;17.052;2023-02-25T09:20:56;4.13;;;2.08;;
74309;SDS011;62722;51.142;17.052;2023-02-25T09:23:24;3.95;;;2.42;;
74309;SDS011;62722;51.142;17.052;2023-02-25T09:25:51;4.90;;;2.17;;
74309;SDS011;62722;51.142;17.052;2023-02-25T09:28:19;5.25;;;2.33;;
74309;SDS011;62722;51.142;17.052;2023-02-25T09:30:46;4.65;;;2.40;;
74309;SDS011;62722;51.142;17.052;2023-02-25T09:33:14;4.28;;;2.30;;
74309;SDS011;62722;51.142;17.052;2023-02-25T09:35:42;4.22;;;2.67;;
74309;SDS011;62722;51.142;17.052;2023-02-25T09:38:10;4.25;;;1.95;;
74309;SDS011;62722;51.142;17.052;2023-02-25T09:40:37;5.30;;;2.65;;
74309;SDS011;62722;51.142;17.052;2023-02-25T09:43:09;3.33;;;1.92;;
74309;SDS011;62722;51.142;17.052;2023-02-25T09:45:47;5.50;;;2.13;;
74309;SDS011;62722;51.142;17.052;2023-02-25T09:48:16;4.38;;;2.35;;
74309;SDS011;62722;51.142;17.052;2023-02-25T09:50:52;4.65;;;2.50;;
74309;SDS011;62722;51.142;17.052;2023-02-25T09:53:30;5.20;;;2.20;;
74309;SDS011;62722;51.142;17.052;2023-02-25T09:55:59;3.80;;;2.00;;
74309;SDS011;62722;51.142;17.052;2023-02-25T09:58:29;5.10;;;2.20;;
74309;SDS011;62722;51.142;17.052;2023-02-25T10:01:01;3.65;;;1.70;;
74309;SDS011;62722;51.142;17.052;2023-02-25T10:03:38;4.18;;;2.40;;
74309;SDS011;62722;51.142;17.052;2023-02-25T10:06:15;3.70;;;2.03;;
74309;SDS011;62722;51.142;17.052;2023-02-25T10:08:50;4.28;;;2.28;;
74309;SDS011;62722;51.142;17.052;2023-02-25T10:11:27;3.53;;;2.03;;
74309;SDS011;62722;51.142;17.052;2023-02-25T10:14:04;4.13;;;2.08;;
74309;SDS011;62722;51.142;17.052;2023-02-25T10:16:42;5.57;;;2.38;;
74309;SDS011;62722;51.142;17.052;2023-02-25T10:19:19;3.95;;;2.10;;
74309;SDS011;62722;51.142;17.052;2023-02-25T10:22:05;3.67;;;2.05;;
74309;SDS011;62722;51.142;17.052;2023-02-25T10:24:48;4.28;;;2.40;;
74309;SDS011;62722;51.142;17.052;2023-02-25T10:27:19;5.47;;;2.80;;
74309;SDS011;62722;51.142;17.052;2023-02-25T10:29:51;4.93;;;2.15;;
74309;SDS011;62722;51.142;17.052;2023-02-25T10:32:23;3.95;;;2.28;;
74309;SDS011;62722;51.142;17.052;2023-02-25T10:34:52;2.67;;;1.65;;
74309;SDS011;62722;51.142;17.052;2023-02-25T10:37:24;3.45;;;1.92;;
74309;SDS011;62722;51.142;17.052;2023-02-25T10:39:57;3.20;;;1.73;;
74309;SDS011;62722;51.142;17.052;2023-02-25T10:42:26;2.55;;;1.42;;
74309;SDS011;62722;51.142;17.052;2023-02-25T10:44:54;2.67;;;1.40;;
74309;SDS011;62722;51.142;17.052;2023-02-25T10:47:33;3.08;;;1.52;;
74309;SDS011;62722;51.142;17.052;2023-02-25T10:50:15;2.13;;;1.30;;
74309;SDS011;62722;51.142;17.052;2023-02-25T10:52:52;2.10;;;1.17;;
74309;SDS011;62722;51.142;17.052;2023-02-25T10:58:21;1.63;;;0.80;;
74309;SDS011;62722;51.142;17.052;2023-02-25T11:00:53;2.08;;;0.65;;
74309;SDS011;62722;51.142;17.052;2023-02-25T11:05:51;1.90;;;0.80;;
74309;SDS011;62722;51.142;17.052;2023-02-25T11:08:25;1.77;;;0.80;;
74309;SDS011;62722;51.142;17.052;2023-02-25T11:10:58;1.42;;;0.80;;
74309;SDS011;62722;51.142;17.052;2023-02-25T11:13:29;2.28;;;0.90;;
74309;SDS011;62722;51.142;17.052;2023-02-25T11:16:01;2.78;;;1.20;;
74309;SDS011;62722;51.142;17.052;2023-02-25T11:18:32;2.97;;;1.02;;
74309;SDS011;62722;51.142;17.052;2023-02-25T11:21:00;2.58;;;0.82;;
74309;SDS011;62722;51.142;17.052;2023-02-25T11:23:33;2.05;;;0.65;;
74309;SDS011;62722;51.142;17.052;2023-02-25T11:26:04;2.90;;;0.90;;
74309;SDS011;62722;51.142;17.052;2023-02-25T11:28:33;1.70;;;0.70;;
74309;SDS011;62722;51.142;17.052;2023-02-25T11:31:06;1.48;;;0.60;;
74309;SDS011;62722;51.142;17.052;2023-02-25T11:33:37;2.95;;;0.80;;
74309;SDS011;62722;51.142;17.052;2023-02-25T11:36:08;2.55;;;0.98;;
74309;SDS011;62722;51.142;17.052;2023-02-25T11:38:38;1.33;;;0.60;;
74309;SDS011;62722;51.142;17.052;2023-02-25T11:41:13;1.42;;;0.73;;
74309;SDS011;62722;51.142;17.052;2023-02-25T11:43:43;1.90;;;0.70;;
74309;SDS011;62722;51.142;17.052;2023-02-25T11:46:12;2.33;;;0.77;;
74309;SDS011;62722;51.142;17.052;2023-02-25T11:48:45;2.20;;;0.65;;
74309;SDS011;62722;51.142;17.052;2023-02-25T11:51:24;2.55;;;1.05;;
74309;SDS011;62722;51.142;17.052;2023-02-25T11:54:02;1.63;;;0.80;;
74309;SDS011;62722;51.142;17.052;2023-02-25T11:56:37;1.98;;;0.80;;
74309;SDS011;62722;51.142;17.052;2023-02-25T11:59:12;2.20;;;0.90;;
74309;SDS011;62722;51.142;17.052;2023-02-25T12:01:57;2.55;;;1.02;;
74309;SDS011;62722;51.142;17.052;2023-02-25T12:08:02;4.18;;;3.22;;
74309;SDS011;62722;51.142;17.052;2023-02-25T12:10:56;3.10;;;1.20;;
74309;SDS011;62722;51.142;17.052;2023-02-25T12:16:51;3.65;;;1.10;;
74309;SDS011;62722;51.142;17.052;2023-02-25T12:19:34;1.40;;;0.80;;
74309;SDS011;62722;51.142;17.052;2023-02-25T12:22:42;1.70;;;0.82;;
74309;SDS011;62722;51.142;17.052;2023-02-25T12:25:47;1.73;;;1.00;;
74309;SDS011;62722;51.142;17.052;2023-02-25T12:28:25;2.00;;;1.08;;
74309;SDS011;62722;51.142;17.052;2023-02-25T12:34:20;1.90;;;1.10;;
74309;SDS011;62722;51.142;17.052;2023-02-25T12:37:04;5.47;;;1.73;;
74309;SDS011;62722;51.142;17.052;2023-02-25T12:39:46;2.72;;;1.30;;
74309;SDS011;62722;51.142;17.052;2023-02-25T12:42:26;3.22;;;1.33;;
74309;SDS011;62722;51.142;17.052;2023-02-25T12:51:22;2.38;;;1.20;;
74309;SDS011;62722;51.142;17.052;2023-02-25T12:56:49;2.53;;;0.98;;
74309;SDS011;62722;51.142;17.052;2023-02-25T12:59:51;2.75;;;0.80;;
74309;SDS011;62722;51.142;17.052;2023-02-25T13:02:42;2.65;;;0.80;;
74309;SDS011;62722;51.142;17.052;2023-02-25T13:05:22;2.00;;;0.90;;
74309;SDS011;62722;51.142;17.052;2023-02-25T13:11:13;2.78;;;0.98;;
74309;SDS011;62722;51.142;17.052;2023-02-25T13:14:00;2.38;;;1.05;;
74309;SDS011;62722;51.142;17.052;2023-02-25T13:19:50;1.80;;;0.82;;
74309;SDS011;62722;51.142;17.052;2023-02-25T13:22:42;1.08;;;0.68;;
74309;SDS011;62722;51.142;17.052;2023-02-25T13:25:19;2.53;;;1.02;;
74309;SDS011;62722;51.142;17.052;2023-02-25T13:27:59;1.58;;;0.95;;
74309;SDS011;62722;51.142;17.052;2023-02-25T13:30:48;2.38;;;1.10;;
74309;SDS011;62722;51.142;17.052;2023-02-25T13:33:26;2.83;;;1.30;;
74309;SDS011;62722;51.142;17.052;2023-02-25T13:39:14;2.78;;;1.08;;
74309;SDS011;62722;51.142;17.052;2023-02-25T13:41:58;3.30;;;0.93;;
74309;SDS011;62722;51.142;17.052;2023-02-25T13:47:46;2.33;;;1.30;;
74309;SDS011;62722;51.142;17.052;2023-02-25T13:50:31;2.50;;;1.23;;
74309;SDS011;62722;51.142;17.052;2023-02-25T13:53:15;2.13;;;1.10;;
74309;SDS011;62722;51.142;17.052;2023-02-25T13:55:59;2.88;;;1.30;;
74309;SDS011;62722;51.142;17.052;2023-02-25T13:58:44;3.47;;;1.60;;
74309;SDS011;62722;51.142;17.052;2023-02-25T14:01:25;2.70;;;1.10;;
74309;SDS011;62722;51.142;17.052;2023-02-25T14:04:10;2.53;;;1.17;;
74309;SDS011;62722;51.142;17.052;2023-02-25T14:07:15;2.40;;;1.15;;
74309;SDS011;62722;51.142;17.052;2023-02-25T14:10:03;2.38;;;1.40;;
74309;SDS011;62722;51.142;17.052;2023-02-25T14:12:47;2.92;;;1.40;;
74309;SDS011;62722;51.142;17.052;2023-02-25T14:15:34;3.45;;;1.40;;
74309;SDS011;62722;51.142;17.052;2023-02-25T14:18:24;2.90;;;1.50;;
74309;SDS011;62722;51.142;17.052;2023-02-25T14:21:17;2.67;;;1.23;;
74309;SDS011;62722;51.142;17.052;2023-02-25T14:24:02;2.35;;;1.27;;
74309;SDS011;62722;51.142;17.052;2023-02-25T14:26:37;2.90;;;1.05;;
74309;SDS011;62722;51.142;17.052;2023-02-25T14:29:13;2.95;;;1.30;;
74309;SDS011;62722;51.142;17.052;2023-02-25T14:32:11;2.78;;;1.45;;
74309;SDS011;62722;51.142;17.052;2023-02-25T14:34:54;2.83;;;1.20;;
74309;SDS011;62722;51.142;17.052;2023-02-25T14:37:40;3.08;;;1.30;;
74309;SDS011;62722;51.142;17.052;2023-02-25T14:40:17;2.90;;;1.40;;
74309;SDS011;62722;51.142;17.052;2023-02-25T14:42:59;2.35;;;1.10;;
74309;SDS011;62722;51.142;17.052;2023-02-25T14:45:38;2.63;;;1.25;;
74309;SDS011;62722;51.142;17.052;2023-02-25T14:48:11;3.95;;;0.93;;
74309;SDS011;62722;51.142;17.052;2023-02-25T14:50:45;2.65;;;1.10;;
74309;SDS011;62722;51.142;17.052;2023-02-25T14:56:50;1.55;;;0.90;;
74309;SDS011;62722;51.142;17.052;2023-02-25T14:59:48;2.00;;;1.00;;
74309;SDS011;62722;51.142;17.052;2023-02-25T15:02:51;2.88;;;1.40;;
74309;SDS011;62722;51.142;17.052;2023-02-25T15:05:36;2.95;;;1.20;;
74309;SDS011;62722;51.142;17.052;2023-02-25T15:11:23;2.85;;;1.42;;
74309;SDS011;62722;51.142;17.052;2023-02-25T15:14:11;3.38;;;2.08;;
74309;SDS011;62722;51.142;17.052;2023-02-25T15:20:24;2.85;;;1.52;;
74309;SDS011;62722;51.142;17.052;2023-02-25T15:23:08;3.15;;;1.55;;
74309;SDS011;62722;51.142;17.052;2023-02-25T15:25:40;3.65;;;1.70;;
74309;SDS011;62722;51.142;17.052;2023-02-25T15:31:23;4.05;;;1.60;;
74309;SDS011;62722;51.142;17.052;2023-02-25T15:33:53;2.65;;;1.33;;
74309;SDS011;62722;51.142;17.052;2023-02-25T15:36:44;2.95;;;1.45;;
74309;SDS011;62722;51.142;17.052;2023-02-25T15:39:21;2.45;;;1.30;;
74309;SDS011;62722;51.142;17.052;2023-02-25T15:42:42;3.55;;;1.45;;
74309;SDS011;62722;51.142;17.052;2023-02-25T15:45:34;2.70;;;1.27;;
74309;SDS011;62722;51.142;17.052;2023-02-25T15:48:27;3.13;;;1.20;;
74309;SDS011;62722;51.142;17.052;2023-02-25T15:51:04;2.83;;;1.35;;
74309;SDS011;62722;51.142;17.052;2023-02-25T15:53:40;2.83;;;1.23;;
74309;SDS011;62722;51.142;17.052;2023-02-25T15:59:42;3.13;;;1.73;;
74309;SDS011;62722;51.142;17.052;2023-02-25T16:05:14;3.17;;;1.77;;
74309;SDS011;62722;51.142;17.052;2023-02-25T16:07:45;4.15;;;1.80;;
74309;SDS011;62722;51.142;17.052;2023-02-25T16:10:17;3.63;;;1.63;;
74309;SDS011;62722;51.142;17.052;2023-02-25T16:12:50;3.40;;;1.52;;
74309;SDS011;62722;51.142;17.052;2023-02-25T16:15:24;3.42;;;1.90;;